Time;durP1;ratioP1;P1;durP2;ratioP2;P2;SDS_P1;SDS_P2;PMS_P1;PMS_P2;Temp;Humidity;BMP_temperature;BMP_pressure;BME280_temperature;BME280_humidity;BME280_pressure;Samples;Min_cycle;Max_cycle;Signal;HPM_P1;HPM_P2
2022/07/22 00:00:13;;;;;;;73.68;53.90;;;;;;;28.45;77.15;100953.56;4965021;28;67349;-48
2022/07/22 00:02:43;;;;;;;;;;;;;;;28.32;78.20;100961.56;4959503;28;70414;-48
2022/07/22 00:05:14;;;;;;;71.55;54.88;;;;;;;28.64;76.73;100964.59;4959296;28;65957;-45
2022/07/22 00:07:45;;;;;;;78.23;55.93;;;;;;;28.67;77.11;100961.53;4959259;28;69111;-46
2022/07/22 00:10:16;;;;;;;76.20;53.75;;;;;;;28.75;76.75;100958.59;4958128;28;66562;-47
2022/07/22 00:12:47;;;;;;;70.05;53.00;;;;;;;28.71;76.66;100958.19;4948247;28;70220;-46
2022/07/22 00:15:18;;;;;;;75.00;55.35;;;;;;;28.74;76.47;100956.97;4960602;28;65804;-52
2022/07/22 00:17:49;;;;;;;68.00;48.65;;;;;;;28.85;74.76;100969.03;4948827;28;70284;-50
2022/07/22 00:20:20;;;;;;;58.13;45.08;;;;;;;28.86;74.15;100966.13;4959357;28;65709;-49
2022/07/22 00:22:51;;;;;;;55.70;42.03;;;;;;;28.91;73.94;100969.03;4956853;28;69790;-52
2022/07/22 00:25:22;;;;;;;54.78;40.65;;;;;;;28.99;73.15;100972.59;5023756;28;66542;-49
2022/07/22 00:27:53;;;;;;;50.13;41.42;;;;;;;28.95;73.40;100964.91;4964899;28;70179;-49
2022/07/22 00:30:24;;;;;;;56.95;43.08;;;;;;;29.06;73.43;100971.59;5014556;28;65658;-50
2022/07/22 00:32:55;;;;;;;56.95;41.15;;;;;;;29.10;72.65;100972.00;5026459;28;69710;-49
2022/07/22 00:35:26;;;;;;;53.15;40.63;;;;;;;29.08;72.39;100957.88;4959464;28;65619;-48
2022/07/22 00:37:57;;;;;;;47.65;37.63;;;;;;;29.07;72.59;100950.81;4955157;28;69648;-49
2022/07/22 00:40:28;;;;;;;44.30;37.95;;;;;;;29.21;71.95;100974.09;4959396;28;66632;-50
2022/07/22 00:43:00;;;;;;;51.07;37.43;;;;;;;29.23;72.16;100969.31;4958882;28;69881;-49
2022/07/22 00:45:31;;;;;;;48.47;37.20;;;;;;;29.24;71.81;100973.69;5024363;28;65960;-49
2022/07/22 00:48:03;;;;;;;48.05;36.83;;;;;;;29.27;71.17;100973.25;5012431;28;69965;-48
2022/07/22 00:50:34;;;;;;;;;;;;;;;28.94;72.79;100984.81;4950251;28;66896;-49
2022/07/22 00:53:05;;;;;;;43.78;35.03;;;;;;;29.28;71.46;100985.75;4948289;28;69739;-49
2022/07/22 00:55:37;;;;;;;41.05;34.50;;;;;;;29.24;71.05;100967.44;4950387;28;65388;-51
2022/07/22 00:58:08;;;;;;;41.15;33.92;;;;;;;29.24;70.38;100959.34;4958836;28;69562;-50
2022/07/22 01:00:39;;;;;;;41.45;34.25;;;;;;;29.36;70.65;100977.44;4945265;28;66929;-50
2022/07/22 01:03:10;;;;;;;39.30;33.20;;;;;;;29.39;70.63;100974.31;4956595;28;70088;-49
2022/07/22 01:05:41;;;;;;;42.72;33.88;;;;;;;29.42;69.76;100972.22;4999319;28;65284;-50
2022/07/22 01:08:12;;;;;;;39.22;32.35;;;;;;;29.19;69.58;100924.84;5013647;28;69594;-49
2022/07/22 01:10:42;;;;;;;41.63;34.33;;;;;;;29.46;69.67;100965.38;5040655;28;66230;-50
2022/07/22 01:13:13;;;;;;;37.20;32.42;;;;;;;29.48;69.82;100971.41;4958434;28;70287;-49
2022/07/22 01:15:45;;;;;;;39.22;31.58;;;;;;;29.13;69.84;100912.16;5025971;28;66875;-50
2022/07/22 01:18:16;;;;;;;39.63;32.22;;;;;;;29.28;69.53;100936.25;4958445;28;71166;-49
2022/07/22 01:20:47;;;;;;;36.88;30.85;;;;;;;29.46;69.42;100959.97;4956208;28;66477;-49
2022/07/22 01:23:18;;;;;;;38.90;31.63;;;;;;;29.50;69.21;100958.50;4959346;28;68610;-50
2022/07/22 01:25:49;;;;;;;37.33;30.20;;;;;;;29.55;68.81;100964.13;4954128;28;66461;-52
2022/07/22 01:28:21;;;;;;;39.42;30.20;;;;;;;29.57;68.66;100962.03;5023969;28;69219;-50
2022/07/22 01:30:52;;;;;;;36.10;30.50;;;;;;;29.61;68.51;100963.25;4948385;28;66340;-49
2022/07/22 01:33:24;;;;;;;35.83;28.43;;;;;;;29.62;68.40;100965.78;4958553;28;70776;-49
2022/07/22 01:35:55;;;;;;;32.38;27.77;;;;;;;29.64;68.16;100973.69;4953058;28;66871;-50
2022/07/22 01:38:26;;;;;;;31.63;27.65;;;;;;;29.59;68.58;100960.78;5019554;28;69616;-49
2022/07/22 01:40:57;;;;;;;30.08;26.92;;;;;;;29.65;68.66;100969.97;5019598;28;64746;-49
2022/07/22 01:43:30;;;;;;;32.53;26.90;;;;;;;29.70;68.38;100967.47;5024934;28;70317;-50
2022/07/22 01:46:01;;;;;;;34.80;26.58;;;;;;;29.66;68.38;100960.81;4958178;28;67542;-49
2022/07/22 01:48:34;;;;;;;29.10;25.80;;;;;;;29.68;68.38;100953.31;5014023;28;70382;-49
2022/07/22 01:51:05;;;;;;;31.15;25.67;;;;;;;29.69;67.86;100960.38;5025032;28;66708;-49
2022/07/22 01:53:38;;;;;;;32.17;25.20;;;;;;;29.73;67.98;100961.63;4955820;28;69884;-48
2022/07/22 01:56:09;;;;;;;28.33;25.45;;;;;;;29.78;67.82;100971.81;5004648;28;65770;-49
2022/07/22 01:58:49;;;;;;;32.13;24.67;;;;;;;29.72;68.03;100956.44;5023306;28;70254;-49
2022/07/22 02:01:25;;;;;;;26.95;23.10;;;;;;;29.86;67.81;100976.16;4997995;28;67137;-49
2022/07/22 02:03:56;;;;;;;27.27;23.88;;;;;;;29.67;67.74;100943.56;5021730;28;69163;-50
2022/07/22 02:06:27;;;;;;;27.98;23.35;;;;;;;29.72;67.53;100948.31;5024720;28;66657;-51
2022/07/22 02:08:59;;;;;;;25.83;22.75;;;;;;;29.83;67.27;100961.19;4954785;28;69787;-48
2022/07/22 02:11:37;;;;;;;24.58;22.10;;;;;;;29.96;67.29;100965.75;5022881;28;66431;-50
2022/07/22 02:14:09;;;;;;;24.25;21.45;;;;;;;29.92;67.37;100959.94;5022427;28;69794;-49
2022/07/22 02:16:40;;;;;;;24.05;21.55;;;;;;;30.00;66.70;100964.25;4955559;28;66371;-50
2022/07/22 02:19:13;;;;;;;25.52;22.63;;;;;;;30.03;67.30;100966.53;5023110;28;70041;-49
2022/07/22 02:21:44;;;;;;;23.65;21.17;;;;;;;30.04;66.74;100957.41;4956672;28;68009;-48
2022/07/22 02:24:14;;;;;;;24.63;21.30;;;;;;;30.01;66.62;100944.31;5023402;28;70078;-49
2022/07/22 02:26:46;;;;;;;23.65;21.17;;;;;;;29.98;66.77;100936.63;5024346;28;66872;-50
2022/07/22 02:29:17;;;;;;;23.00;20.70;;;;;;;30.09;66.96;100949.47;4947218;28;69737;-50
2022/07/22 02:31:48;;;;;;;24.63;21.25;;;;;;;30.14;66.54;100951.53;4957290;28;65226;-50
2022/07/22 02:34:22;;;;;;;22.23;19.95;;;;;;;30.16;66.59;100955.69;5020012;28;69656;-51
2022/07/22 02:36:53;;;;;;;21.58;19.17;;;;;;;30.20;66.53;100956.06;4957625;28;65184;-48
2022/07/22 02:39:26;;;;;;;22.45;19.40;;;;;;;30.19;66.57;100955.25;4957988;28;69745;-49
2022/07/22 02:41:57;;;;;;;21.13;19.10;;;;;;;30.21;66.66;100947.75;5024447;28;66176;-49
2022/07/22 02:44:28;;;;;;;21.52;19.27;;;;;;;30.24;66.01;100958.19;5023589;28;69777;-50
2022/07/22 02:46:59;;;;;;;23.00;19.15;;;;;;;30.26;66.11;100956.09;5015014;28;65934;-49
2022/07/22 02:49:34;;;;;;;21.45;19.17;;;;;;;30.22;66.42;100944.03;5024358;28;69485;-49
2022/07/22 02:52:05;;;;;;;19.75;17.90;;;;;;;30.32;65.92;100959.00;5027768;28;66322;-49
2022/07/22 02:54:36;;;;;;;19.38;17.33;;;;;;;30.31;66.59;100946.50;4956894;28;70234;-50
2022/07/22 02:57:08;;;;;;;19.55;17.10;;;;;;;30.34;66.25;100946.06;5024391;28;66581;-50
2022/07/22 02:59:39;;;;;;;20.10;16.60;;;;;;;30.35;66.56;100942.34;5024438;28;71044;-49
2022/07/22 03:02:10;;;;;;;18.45;16.80;;;;;;;30.12;66.24;100905.78;4941666;28;65182;-50
2022/07/22 03:04:41;;;;;;;18.50;16.48;;;;;;;30.37;66.55;100934.81;5020186;28;69602;-49
2022/07/22 03:07:12;;;;;;;18.27;16.30;;;;;;;30.41;66.20;100927.94;4955595;28;65181;-49
2022/07/22 03:09:45;;;;;;;19.27;16.65;;;;;;;30.42;66.24;100926.88;5026485;28;70764;-49
2022/07/22 03:12:18;;;;;;;17.55;15.50;;;;;;;30.38;65.90;100914.84;5025510;28;66321;-49
2022/07/22 03:14:50;;;;;;;16.85;15.20;;;;;;;30.39;65.74;100906.47;5035839;28;69543;-50
2022/07/22 03:17:21;;;;;;;16.73;15.13;;;;;;;30.45;66.36;100923.72;4954776;28;65363;-49
2022/07/22 03:19:52;;;;;;;17.45;15.80;;;;;;;30.48;66.10;100916.03;5021161;28;70969;-50
2022/07/22 03:22:23;;;;;;;16.85;15.38;;;;;;;30.48;65.78;100924.16;4954886;28;66642;-50
2022/07/22 03:24:54;;;;;;;17.37;15.27;;;;;;;30.51;65.63;100925.59;5027021;28;70256;-50
2022/07/22 03:27:26;;;;;;;17.30;15.60;;;;;;;30.37;65.82;100894.22;5025133;28;66267;-49
2022/07/22 03:29:57;;;;;;;17.23;15.48;;;;;;;30.45;65.56;100907.50;5032419;28;68549;-51
2022/07/22 03:32:29;;;;;;;;;;;;;;;30.24;66.33;100927.59;5026506;28;66315;-49
2022/07/22 03:35:00;;;;;;;17.77;15.95;;;;;;;30.56;65.49;100914.91;5026959;28;70264;-50
2022/07/22 03:37:36;;;;;;;16.67;15.00;;;;;;;30.62;65.54;100922.19;5025553;28;65565;-49
2022/07/22 03:40:08;;;;;;;17.70;15.90;;;;;;;30.61;65.75;100915.09;4952022;28;70097;-50
2022/07/22 03:42:41;;;;;;;16.65;15.07;;;;;;;30.62;65.60;100911.38;5024609;28;65637;-49
2022/07/22 03:45:15;;;;;;;17.40;15.52;;;;;;;30.67;65.69;100916.97;5026370;28;69520;-49
2022/07/22 03:47:46;;;;;;;17.38;15.57;;;;;;;30.66;65.13;100892.81;5026876;28;66357;-51
2022/07/22 03:50:20;;;;;;;18.17;15.73;;;;;;;30.72;65.58;100900.03;5019224;28;70014;-49
2022/07/22 03:52:51;;;;;;;19.60;16.40;;;;;;;30.67;65.15;100889.88;5025057;28;66849;-49
2022/07/22 03:55:22;;;;;;;18.92;16.63;;;;;;;30.77;65.19;100893.97;5030297;28;69884;-49
2022/07/22 03:57:55;;;;;;;20.35;15.82;;;;;;;30.79;64.90;100900.00;5018055;28;66821;-50
2022/07/22 04:00:30;;;;;;;19.10;15.45;;;;;;;30.65;65.20;100862.19;4953845;28;70326;-50
2022/07/22 04:03:04;;;;;;;17.80;16.08;;;;;;;30.82;65.04;100897.72;4937100;28;66234;-50
2022/07/22 04:05:57;;;;;;;16.70;15.00;;;;;;;30.85;64.91;100893.75;5033209;28;69742;-50
2022/07/22 04:08:42;;;;;;;16.48;14.88;;;;;;;30.86;64.83;100889.97;5025277;28;65984;-48
2022/07/22 04:11:14;;;;;;;17.98;16.15;;;;;;;30.90;64.75;100891.22;5022456;28;69583;-51
2022/07/22 04:13:45;;;;;;;17.60;15.73;;;;;;;30.91;64.50;100890.16;5024780;28;66036;-51
2022/07/22 04:16:16;;;;;;;16.90;15.18;;;;;;;30.94;64.75;100897.84;5020434;28;69938;-50
2022/07/22 04:18:56;;;;;;;16.25;14.80;;;;;;;30.92;64.41;100887.25;5021332;28;66152;-51
2022/07/22 04:21:50;;;;;;;18.80;14.95;;;;;;;30.92;64.25;100883.66;5023750;28;69560;-51
2022/07/22 04:24:22;;;;;;;16.08;14.45;;;;;;;30.76;64.33;100840.84;5042130;28;66527;-50
2022/07/22 04:26:54;;;;;;;17.23;14.00;;;;;;;31.02;64.07;100878.59;5023158;28;70226;-51
2022/07/22 04:29:25;;;;;;;15.75;14.23;;;;;;;31.06;64.00;100876.25;5015895;28;66221;-50
2022/07/22 04:31:56;;;;;;;16.35;14.77;;;;;;;31.07;64.08;100873.34;5025295;28;70241;-49
2022/07/22 04:34:31;;;;;;;15.38;13.70;;;;;;;31.06;63.83;100871.66;5027982;28;65539;-49
2022/07/22 04:37:03;;;;;;;15.38;13.88;;;;;;;31.09;64.23;100863.13;5014322;28;69845;-49
2022/07/22 04:39:37;;;;;;;16.17;13.95;;;;;;;31.08;63.94;100856.03;5025563;28;66180;-51
2022/07/22 04:42:08;;;;;;;13.98;12.88;;;;;;;31.15;64.14;100867.66;4955820;28;69765;-49
2022/07/22 04:44:44;;;;;;;14.98;13.38;;;;;;;31.19;63.59;100861.78;5033850;28;65490;-50
2022/07/22 04:47:16;;;;;;;16.67;13.43;;;;;;;31.21;63.58;100854.25;4950736;28;70782;-49
2022/07/22 04:49:48;;;;;;;14.35;12.98;;;;;;;31.23;63.89;100846.72;5025212;28;66200;-49
2022/07/22 04:52:19;;;;;;;13.73;12.32;;;;;;;31.23;63.32;100846.72;4957997;28;69985;-51
2022/07/22 04:54:51;;;;;;;15.75;12.98;;;;;;;31.14;63.42;100830.75;5015648;28;65360;-49
2022/07/22 04:57:22;;;;;;;13.95;12.60;;;;;;;31.25;63.30;100840.03;5016534;28;70365;-49
2022/07/22 04:59:53;;;;;;;12.82;11.82;;;;;;;31.25;63.33;100823.75;5009209;28;66176;-50
2022/07/22 05:02:25;;;;;;;13.30;11.98;;;;;;;31.26;63.45;100828.16;5029657;28;70103;-50
2022/07/22 05:04:57;;;;;;;13.48;12.25;;;;;;;31.28;62.87;100823.31;5035800;28;66507;-49
2022/07/22 05:07:29;;;;;;;13.32;12.02;;;;;;;31.35;63.03;100828.69;5023715;28;69456;-49
2022/07/22 05:10:00;;;;;;;12.80;11.65;;;;;;;31.38;63.03;100833.69;5039683;28;65961;-51
2022/07/22 05:12:31;;;;;;;11.35;10.45;;;;;;;31.38;63.22;100825.56;5039482;28;70231;-51
2022/07/22 05:15:03;;;;;;;12.60;11.40;;;;;;;31.36;63.02;100808.69;5040473;28;66180;-50
2022/07/22 05:17:35;;;;;;;12.50;11.23;;;;;;;31.42;62.52;100813.19;5043063;28;69531;-50
2022/07/22 05:20:16;;;;;;;12.07;10.98;;;;;;;31.43;62.40;100820.28;5025537;28;66264;-49
2022/07/22 05:22:48;;;;;;;12.52;11.10;;;;;;;31.47;62.97;100816.06;5039597;28;69367;-49
2022/07/22 05:25:24;;;;;;;14.43;10.68;;;;;;;31.49;62.60;100819.38;5030831;28;66680;-50
2022/07/22 05:27:56;;;;;;;11.98;10.90;;;;;;;31.52;62.88;100813.50;5039630;28;70260;-50
2022/07/22 05:30:32;;;;;;;11.60;10.30;;;;;;;31.51;62.35;100806.44;5038005;28;66023;-49
2022/07/22 05:33:04;;;;;;;11.90;10.80;;;;;;;31.55;62.46;100794.06;5035164;28;70496;-49
2022/07/22 05:35:53;;;;;;;11.60;10.63;;;;;;;31.58;62.43;100795.50;5041501;28;67151;-49
2022/07/22 05:38:27;;;;;;;11.63;10.52;;;;;;;31.63;62.44;100797.53;5026386;28;69368;-50
2022/07/22 05:40:59;;;;;;;11.13;10.32;;;;;;;31.60;62.52;100777.94;5033400;28;66411;-50
2022/07/22 05:43:30;;;;;;;11.40;10.38;;;;;;;31.66;62.08;100786.22;5037314;28;71099;-50
2022/07/22 05:46:03;;;;;;;10.05;9.18;;;;;;;31.69;61.88;100777.63;5035697;28;66316;-50
2022/07/22 05:48:34;;;;;;;11.30;10.18;;;;;;;31.68;62.31;100784.94;5036346;28;69672;-49
2022/07/22 05:51:12;;;;;;;13.90;10.05;;;;;;;31.67;62.01;100771.59;5030494;28;66076;-51
2022/07/22 05:53:44;;;;;;;9.90;9.18;;;;;;;31.77;62.30;100782.75;5037431;28;70212;-49
2022/07/22 05:56:15;;;;;;;10.35;9.48;;;;;;;31.77;62.27;100775.44;5037628;28;65976;-50
2022/07/22 05:58:46;;;;;;;10.90;9.23;;;;;;;31.81;62.07;100779.31;5029523;28;70208;-50
2022/07/22 06:01:17;;;;;;;9.73;8.88;;;;;;;31.87;62.04;100772.16;4977145;28;65567;-50
2022/07/22 06:03:48;;;;;;;12.73;8.90;;;;;;;31.78;61.92;100768.94;5011739;28;70470;-50
2022/07/22 06:06:19;;;;;;;9.30;8.60;;;;;;;31.81;62.19;100764.94;4958707;28;66790;-49
2022/07/22 06:08:51;;;;;;;10.48;8.80;;;;;;;31.95;61.61;100774.59;5011711;28;70712;-50
2022/07/22 06:11:24;;;;;;;11.15;8.65;;;;;;;31.99;61.71;100770.38;5023077;28;66697;-49
2022/07/22 06:13:54;;;;;;;9.65;8.75;;;;;;;32.03;61.67;100776.16;5024029;28;70133;-49
2022/07/22 06:16:26;;;;;;;9.30;8.40;;;;;;;32.03;61.52;100776.97;5028180;28;65776;-49
2022/07/22 06:19:02;;;;;;;8.93;8.07;;;;;;;32.10;61.46;100770.66;5025668;28;69846;-51
2022/07/22 06:21:33;;;;;;;8.73;8.02;;;;;;;32.13;61.53;100775.63;5039339;28;65937;-50
2022/07/22 06:24:10;;;;;;;9.27;7.80;;;;;;;32.17;61.42;100776.78;5010163;28;69184;-50
2022/07/22 06:26:41;;;;;;;9.10;8.30;;;;;;;32.22;61.33;100775.03;5034689;28;66528;-49
2022/07/22 06:29:12;;;;;;;8.83;8.03;;;;;;;32.15;61.33;100752.63;5024180;28;70779;-49
2022/07/22 06:31:43;;;;;;;7.93;7.32;;;;;;;32.31;61.29;100766.56;5024192;28;66020;-50
2022/07/22 06:34:15;;;;;;;8.20;7.22;;;;;;;32.34;61.24;100763.38;4946716;28;70621;-49
2022/07/22 06:37:12;;;;;;;8.82;7.75;;;;;;;32.30;60.95;100746.72;4950569;28;65608;-48
2022/07/22 06:39:43;;;;;;;7.95;7.35;;;;;;;32.22;60.77;100720.75;4944716;28;69062;-50
2022/07/22 06:42:20;;;;;;;7.90;7.30;;;;;;;32.49;60.96;100759.19;5012785;28;66405;-50
2022/07/22 06:44:54;;;;;;;7.68;7.07;;;;;;;32.49;60.50;100748.31;4955553;28;70338;-48
2022/07/22 06:47:43;;;;;;;7.18;6.57;;;;;;;32.57;60.36;100755.31;4950618;28;66601;-49
2022/07/22 06:50:16;;;;;;;7.18;6.53;;;;;;;32.64;60.39;100749.75;4977917;28;70077;-50
2022/07/22 06:52:48;;;;;;;8.43;7.18;;;;;;;32.70;60.27;100752.34;5025474;28;66710;-49
2022/07/22 06:55:19;;;;;;;6.63;6.03;;;;;;;32.74;60.07;100750.00;4988891;28;69546;-49
2022/07/22 06:58:06;;;;;;;6.53;6.03;;;;;;;32.71;59.87;100734.19;5011484;28;65241;-49
2022/07/22 07:00:37;;;;;;;6.45;6.05;;;;;;;32.84;59.78;100747.50;5026468;28;69290;-51
2022/07/22 07:03:25;;;;;;;6.32;5.82;;;;;;;32.91;59.50;100750.13;5026135;28;66614;-50
2022/07/22 07:06:11;;;;;;;6.38;5.82;;;;;;;32.97;59.52;100748.34;5025684;28;70120;-49
2022/07/22 07:09:15;;;;;;;6.68;6.10;;;;;;;33.03;59.36;100752.84;4978188;28;66230;-51
2022/07/22 07:11:58;;;;;;;6.82;5.95;;;;;;;33.03;59.38;100736.53;5027164;28;70985;-51
2022/07/22 07:15:07;;;;;;;7.88;5.47;;;;;;;33.18;59.25;100745.00;4959561;28;66075;-50
2022/07/22 07:18:08;;;;;;;7.15;5.70;;;;;;;33.21;59.26;100744.56;5013209;28;70542;-52
2022/07/22 07:20:40;;;;;;;8.57;6.35;;;;;;;33.29;59.03;100746.91;5027379;28;65895;-50
2022/07/22 07:23:12;;;;;;;9.60;5.45;;;;;;;33.33;58.88;100741.81;5025586;28;70169;-50
2022/07/22 07:25:46;;;;;;;6.53;5.60;;;;;;;33.31;58.54;100727.63;5026436;28;65893;-50
2022/07/22 07:28:38;;;;;;;5.93;4.97;;;;;;;33.34;58.22;100735.28;5026438;28;70095;-50
2022/07/22 07:31:29;;;;;;;5.60;5.07;;;;;;;33.47;58.21;100731.47;4988336;28;66020;-50
2022/07/22 07:34:07;;;;;;;5.28;4.75;;;;;;;33.52;58.15;100737.03;5017134;28;70608;-48
2022/07/22 07:36:38;;;;;;;12.10;5.20;;;;;;;33.54;58.17;100730.31;5023128;28;67173;-50
2022/07/22 07:39:10;;;;;;;6.82;5.05;;;;;;;33.58;58.03;100717.03;5027419;28;69412;-50
2022/07/22 07:41:42;;;;;;;8.82;5.45;;;;;;;33.59;57.90;100719.50;5039251;28;66265;-51
2022/07/22 07:44:19;;;;;;;5.43;4.93;;;;;;;33.64;57.93;100710.63;5010024;28;69419;-50
2022/07/22 07:46:50;;;;;;;5.50;5.00;;;;;;;33.64;57.89;100705.19;5026951;28;66101;-50
2022/07/22 07:49:22;;;;;;;6.85;4.85;;;;;;;33.64;57.75;100702.47;5029039;28;69219;-51
2022/07/22 07:51:53;;;;;;;4.80;4.40;;;;;;;33.70;57.76;100701.47;5026118;28;67613;-50
2022/07/22 07:54:24;;;;;;;9.00;4.78;;;;;;;33.74;57.60;100709.97;5025089;28;70395;-49
2022/07/22 07:57:05;;;;;;;4.50;4.20;;;;;;;33.76;57.56;100708.66;5025703;28;65127;-51
2022/07/22 07:59:38;;;;;;;5.78;4.65;;;;;;;33.70;57.63;100687.88;5041239;28;69669;-49
2022/07/22 08:02:10;;;;;;;4.82;4.43;;;;;;;33.84;57.42;100701.19;5035661;28;66321;-49
2022/07/22 08:04:41;;;;;;;7.13;4.38;;;;;;;33.85;57.43;100700.09;4959153;28;69643;-51
2022/07/22 08:07:24;;;;;;;5.20;4.80;;;;;;;33.88;57.43;100691.44;5022006;28;43100;-49
2022/07/22 08:09:55;;;;;;;4.67;4.20;;;;;;;33.88;57.45;100688.72;5006683;28;69806;-50
2022/07/22 08:13:21;;;;;;;4.85;4.45;;;;;;;33.91;57.31;100693.69;4968598;28;65625;-49
2022/07/22 08:16:00;;;;;;;4.93;4.45;;;;;;;33.94;56.97;100693.22;4953686;28;70332;-50
2022/07/22 08:18:31;;;;;;;5.63;4.30;;;;;;;33.96;57.05;100691.03;5032166;28;66700;-50
2022/07/22 08:21:02;;;;;;;6.45;4.78;;;;;;;33.97;57.02;100687.28;5038415;28;69583;-50
2022/07/22 08:23:43;;;;;;;5.10;4.70;;;;;;;33.99;57.23;100690.56;5026325;28;66720;-50
2022/07/22 08:26:14;;;;;;;6.00;4.75;;;;;;;33.99;57.15;100688.69;4959936;28;70344;-50
2022/07/22 08:28:45;;;;;;;6.15;4.60;;;;;;;34.01;57.09;100688.41;5024915;28;66286;-49
2022/07/22 08:31:16;;;;;;;4.83;4.43;;;;;;;34.03;57.22;100680.84;5024797;28;69587;-49
2022/07/22 08:33:49;;;;;;;5.43;4.45;;;;;;;34.04;56.86;100679.75;5038117;28;66462;-49
2022/07/22 08:36:29;;;;;;;6.82;4.60;;;;;;;34.04;57.38;100677.03;5018758;28;70475;-49
2022/07/22 08:38:59;;;;;;;;;;;;;;;33.80;57.52;100674.47;4957075;28;66292;-49
2022/07/22 08:41:36;;;;;;;5.00;4.60;;;;;;;34.02;57.10;100668.31;5000480;28;70536;-49
2022/07/22 08:44:09;;;;;;;5.20;4.70;;;;;;;33.69;57.07;100610.06;5026076;28;66635;-50
2022/07/22 08:46:43;;;;;;;6.20;3.92;;;;;;;34.03;57.34;100664.50;5013857;28;69993;-50
2022/07/22 08:49:34;;;;;;;4.72;4.35;;;;;;;34.04;57.32;100671.59;5000513;28;66481;-50
2022/07/22 08:52:17;;;;;;;5.38;4.88;;;;;;;34.03;57.27;100669.94;5024493;28;69651;-49
2022/07/22 08:54:50;;;;;;;8.70;4.45;;;;;;;33.98;57.41;100661.69;5023299;28;66086;-50
2022/07/22 08:57:22;;;;;;;5.97;4.50;;;;;;;34.01;57.50;100661.19;5024179;28;70094;-49
2022/07/22 08:59:56;;;;;;;7.10;4.68;;;;;;;33.68;57.54;100619.28;5025021;28;65981;-49
2022/07/22 09:02:28;;;;;;;5.57;4.93;;;;;;;34.03;57.34;100664.50;5024857;28;70374;-49
2022/07/22 09:05:05;;;;;;;4.53;4.10;;;;;;;34.00;57.46;100665.00;4959719;28;65525;-49
2022/07/22 09:07:58;;;;;;;4.43;4.13;;;;;;;33.98;57.12;100656.25;5017618;28;69666;-49
2022/07/22 09:10:36;;;;;;;5.72;4.78;;;;;;;33.87;57.61;100635.38;5007867;28;66630;-49
2022/07/22 09:13:45;;;;;;;8.25;4.15;;;;;;;33.43;57.70;100573.41;5037976;28;69641;-49
2022/07/22 09:16:49;;;;;;;5.68;5.18;;;;;;;33.78;57.45;100634.97;4955340;28;65595;-49
2022/07/22 09:19:33;;;;;;;5.45;5.05;;;;;;;33.98;57.66;100653.53;5020088;28;69892;-49
2022/07/22 09:22:36;;;;;;;8.40;5.50;;;;;;;33.89;57.63;100641.41;5018412;28;66759;-49
2022/07/22 09:25:34;;;;;;;10.88;6.10;;;;;;;33.64;57.72;100598.28;4956907;28;69909;-51
2022/07/22 09:28:24;;;;;;;5.55;5.15;;;;;;;33.95;57.94;100657.56;4955159;28;66265;-49
2022/07/22 09:31:26;;;;;;;11.25;5.90;;;;;;;33.57;57.86;100603.88;4959613;28;69483;-51
2022/07/22 09:34:10;;;;;;;10.95;6.18;;;;;;;33.97;57.96;100666.31;5023523;28;66292;-49
2022/07/22 09:36:58;;;;;;;6.57;5.80;;;;;;;33.90;58.12;100664.81;5024760;28;71091;-49
2022/07/22 09:39:32;;;;;;;5.93;5.47;;;;;;;33.61;58.03;100604.22;5015503;28;66621;-49
2022/07/22 09:42:08;;;;;;;7.93;6.47;;;;;;;33.56;58.02;100599.50;5024795;28;70005;-50
2022/07/22 09:44:38;;;;;;;7.35;6.65;;;;;;;33.94;58.09;100666.00;4957853;28;65821;-50
2022/07/22 09:47:30;;;;;;;7.13;6.30;;;;;;;33.88;58.24;100664.25;4957542;28;69171;-49
2022/07/22 09:50:33;;;;;;;6.25;5.85;;;;;;;33.55;58.51;100630.50;4947004;28;66355;-50
2022/07/22 09:53:32;;;;;;;7.50;6.80;;;;;;;33.92;58.16;100695.34;4966990;28;70249;-50
2022/07/22 09:56:13;;;;;;;8.18;7.03;;;;;;;33.79;58.50;100686.44;5024197;28;65982;-49
2022/07/22 09:58:44;;;;;;;10.70;7.35;;;;;;;33.87;58.25;100703.41;5023638;28;68859;-49
2022/07/22 10:01:31;;;;;;;8.43;6.65;;;;;;;33.89;58.43;100701.28;5016873;28;65394;-50
2022/07/22 10:04:06;;;;;;;8.98;6.53;;;;;;;33.53;58.55;100648.94;4954361;28;69009;-50
2022/07/22 10:06:42;;;;;;;9.73;6.75;;;;;;;33.86;58.32;100697.16;5012725;28;66464;-50
2022/07/22 10:09:19;;;;;;;10.23;7.45;;;;;;;33.83;58.79;100696.81;5010715;28;69621;-49
2022/07/22 10:11:52;;;;;;;8.88;7.20;;;;;;;33.84;58.44;100693.03;5028858;28;66477;-51
2022/07/22 10:14:28;;;;;;;8.60;7.50;;;;;;;33.47;58.65;100639.84;5022333;28;69205;-49
2022/07/22 10:17:01;;;;;;;8.38;7.57;;;;;;;33.78;58.53;100694.81;5024454;28;65730;-49
2022/07/22 10:19:36;;;;;;;10.05;7.80;;;;;;;33.76;59.49;100703.22;5021230;28;70400;-51
2022/07/22 10:22:39;;;;;;;7.20;6.70;;;;;;;33.63;60.22;100725.31;4948267;28;66738;-51
2022/07/22 10:25:14;;;;;;;12.75;7.07;;;;;;;33.74;60.50;100732.59;5008561;28;70195;-51
2022/07/22 10:28:04;;;;;;;7.55;6.82;;;;;;;33.68;60.47;100749.84;5019134;28;67037;-51
2022/07/22 10:30:40;;;;;;;8.05;5.82;;;;;;;33.34;60.10;100689.06;4955561;28;70356;-51
2022/07/22 10:33:17;;;;;;;6.65;6.15;;;;;;;33.69;60.54;100740.66;4956439;28;66407;-52
2022/07/22 10:35:55;;;;;;;7.95;5.95;;;;;;;33.69;60.75;100750.69;4958719;28;70163;-51
2022/07/22 10:38:28;;;;;;;6.75;5.63;;;;;;;33.68;60.89;100754.47;4952309;28;66053;-51
2022/07/22 10:41:10;;;;;;;6.93;6.15;;;;;;;33.40;61.32;100714.47;4958701;28;70304;-50
2022/07/22 10:43:41;;;;;;;6.28;5.68;;;;;;;33.65;61.26;100766.66;4952511;28;66682;-51
2022/07/22 10:46:12;;;;;;;7.78;5.90;;;;;;;33.50;61.23;100752.75;4958306;28;70355;-50
2022/07/22 10:48:43;;;;;;;6.57;5.43;;;;;;;33.60;61.50;100772.03;4950920;28;65763;-50
2022/07/22 10:51:17;;;;;;;7.40;5.53;;;;;;;33.44;62.05;100748.28;4957572;28;69716;-50
2022/07/22 10:53:59;;;;;;;7.53;5.50;;;;;;;33.21;62.00;100709.22;4950106;28;66824;-51
2022/07/22 10:56:33;;;;;;;6.28;5.70;;;;;;;33.54;62.02;100770.25;4953880;28;70706;-51
2022/07/22 10:59:16;;;;;;;5.68;5.18;;;;;;;33.16;62.35;100725.41;5025125;28;65098;-50
2022/07/22 11:01:50;;;;;;;5.25;4.80;;;;;;;33.53;62.63;100803.97;5036889;28;70607;-50
2022/07/22 11:04:23;;;;;;;9.68;4.68;;;;;;;33.24;62.59;100775.84;5038895;28;66266;-51
2022/07/22 11:06:57;;;;;;;5.95;4.57;;;;;;;32.78;62.98;100705.00;5038281;28;69413;-50
2022/07/22 11:09:34;;;;;;;5.10;4.68;;;;;;;33.12;63.06;100751.41;5023368;28;66903;-52
2022/07/22 11:12:13;;;;;;;5.35;4.55;;;;;;;33.43;63.38;100809.16;5039697;28;69649;-50
2022/07/22 11:14:45;;;;;;;4.10;3.70;;;;;;;33.35;63.13;100815.81;5038316;28;65700;-51
2022/07/22 11:17:16;;;;;;;5.40;4.32;;;;;;;33.33;63.31;100824.19;5039512;28;69067;-51
2022/07/22 11:19:51;;;;;;;4.60;4.30;;;;;;;33.37;63.89;100840.84;5035984;28;68263;-52
2022/07/22 11:22:23;;;;;;;3.90;3.60;;;;;;;33.40;63.63;100850.41;5024006;28;69826;-51
2022/07/22 11:24:54;;;;;;;5.10;3.40;;;;;;;33.35;63.89;100849.25;5037779;28;66454;-52
2022/07/22 11:27:25;;;;;;;4.32;3.92;;;;;;;33.37;63.99;100866.13;5037158;28;70273;-50
2022/07/22 11:29:57;;;;;;;3.20;2.90;;;;;;;33.36;63.83;100861.75;5039493;28;65689;-51
2022/07/22 11:32:31;;;;;;;5.05;3.45;;;;;;;33.29;64.04;100844.78;5041277;28;69442;-52
2022/07/22 11:35:02;;;;;;;3.67;3.30;;;;;;;33.33;64.04;100845.09;5041068;28;66145;-51
2022/07/22 11:37:33;;;;;;;7.82;3.50;;;;;;;33.30;64.06;100845.59;5037655;28;70057;-52
2022/07/22 11:40:06;;;;;;;3.90;3.27;;;;;;;33.06;63.97;100818.41;5042689;28;67213;-51
2022/07/22 11:42:37;;;;;;;3.55;3.25;;;;;;;33.09;64.38;100827.97;5039505;28;71018;-51
2022/07/22 11:45:08;;;;;;;13.27;3.53;;;;;;;33.25;64.43;100870.75;5039608;28;65827;-51
2022/07/22 11:47:49;;;;;;;3.20;3.00;;;;;;;33.22;64.82;100882.09;5040717;28;69915;-51
2022/07/22 11:50:32;;;;;;;4.67;3.23;;;;;;;33.18;64.92;100886.34;5037658;28;66171;-51
2022/07/22 11:53:05;;;;;;;3.22;2.85;;;;;;;33.20;64.39;100888.84;5040941;28;69234;-52